sensor_id;sensor_type;location;lat;lon;timestamp;temperature;humidity
61398;DHT22;47267;48.130;-2.040;2023-02-23T00:01:43;19.40;48.20
61398;DHT22;47267;48.130;-2.040;2023-02-23T00:04:09;19.40;48.10
61398;DHT22;47267;48.130;-2.040;2023-02-23T00:06:36;19.40;48.20
61398;DHT22;47267;48.130;-2.040;2023-02-23T00:09:03;19.40;48.10
61398;DHT22;47267;48.130;-2.040;2023-02-23T00:11:39;19.40;48.20
61398;DHT22;47267;48.130;-2.040;2023-02-23T00:14:08;19.40;48.80
61398;DHT22;47267;48.130;-2.040;2023-02-23T00:16:33;19.40;48.10
61398;DHT22;47267;48.130;-2.040;2023-02-23T00:18:59;19.40;48.20
61398;DHT22;47267;48.130;-2.040;2023-02-23T00:21:29;19.30;48.10
61398;DHT22;47267;48.130;-2.040;2023-02-23T00:24:12;19.30;48.00
61398;DHT22;47267;48.130;-2.040;2023-02-23T00:26:40;19.30;48.10
61398;DHT22;47267;48.130;-2.040;2023-02-23T00:29:18;19.30;48.10
61398;DHT22;47267;48.130;-2.040;2023-02-23T00:31:45;19.30;48.10
61398;DHT22;47267;48.130;-2.040;2023-02-23T00:34:14;19.30;48.10
61398;DHT22;47267;48.130;-2.040;2023-02-23T00:36:41;19.20;48.00
61398;DHT22;47267;48.130;-2.040;2023-02-23T00:39:10;19.30;48.00
61398;DHT22;47267;48.130;-2.040;2023-02-23T00:41:56;19.20;47.90
61398;DHT22;47267;48.130;-2.040;2023-02-23T00:44:27;19.20;47.90
61398;DHT22;47267;48.130;-2.040;2023-02-23T00:46:53;19.20;48.00
61398;DHT22;47267;48.130;-2.040;2023-02-23T00:49:20;19.20;47.90
61398;DHT22;47267;48.130;-2.040;2023-02-23T00:51:46;19.20;47.90
61398;DHT22;47267;48.130;-2.040;2023-02-23T00:54:13;19.20;47.90
61398;DHT22;47267;48.130;-2.040;2023-02-23T00:56:40;19.20;47.90
61398;DHT22;47267;48.130;-2.040;2023-02-23T00:59:06;19.10;47.80
61398;DHT22;47267;48.130;-2.040;2023-02-23T01:01:32;19.10;47.80
61398;DHT22;47267;48.130;-2.040;2023-02-23T01:03:57;19.10;47.80
61398;DHT22;47267;48.130;-2.040;2023-02-23T01:06:23;19.10;47.80
61398;DHT22;47267;48.130;-2.040;2023-02-23T01:08:50;19.10;47.80
61398;DHT22;47267;48.130;-2.040;2023-02-23T01:11:23;19.10;47.80
61398;DHT22;47267;48.130;-2.040;2023-02-23T01:13:51;19.10;47.80
61398;DHT22;47267;48.130;-2.040;2023-02-23T01:16:20;19.00;47.70
61398;DHT22;47267;48.130;-2.040;2023-02-23T01:18:46;19.00;47.70
61398;DHT22;47267;48.130;-2.040;2023-02-23T01:21:22;19.00;47.70
61398;DHT22;47267;48.130;-2.040;2023-02-23T01:23:49;19.00;47.60
61398;DHT22;47267;48.130;-2.040;2023-02-23T01:26:35;19.00;47.70
61398;DHT22;47267;48.130;-2.040;2023-02-23T01:29:06;19.00;47.60
61398;DHT22;47267;48.130;-2.040;2023-02-23T01:31:33;19.00;47.60
61398;DHT22;47267;48.130;-2.040;2023-02-23T01:34:01;19.00;47.60
61398;DHT22;47267;48.130;-2.040;2023-02-23T01:36:28;18.90;47.50
61398;DHT22;47267;48.130;-2.040;2023-02-23T01:38:56;18.90;47.50
61398;DHT22;47267;48.130;-2.040;2023-02-23T01:41:25;18.90;47.50
61398;DHT22;47267;48.130;-2.040;2023-02-23T01:45:07;18.90;47.50
61398;DHT22;47267;48.130;-2.040;2023-02-23T01:46:53;18.90;47.50
61398;DHT22;47267;48.130;-2.040;2023-02-23T01:49:24;18.90;47.50
61398;DHT22;47267;48.130;-2.040;2023-02-23T01:52:19;18.80;47.30
61398;DHT22;47267;48.130;-2.040;2023-02-23T01:54:49;18.90;47.40
61398;DHT22;47267;48.130;-2.040;2023-02-23T01:57:17;18.90;47.40
61398;DHT22;47267;48.130;-2.040;2023-02-23T01:59:47;18.80;47.30
61398;DHT22;47267;48.130;-2.040;2023-02-23T02:02:15;18.80;47.30
61398;DHT22;47267;48.130;-2.040;2023-02-23T02:04:43;18.80;47.30
61398;DHT22;47267;48.130;-2.040;2023-02-23T02:07:23;18.80;47.30
61398;DHT22;47267;48.130;-2.040;2023-02-23T02:09:54;18.80;47.20
61398;DHT22;47267;48.130;-2.040;2023-02-23T02:12:40;18.80;47.20
61398;DHT22;47267;48.130;-2.040;2023-02-23T02:15:07;18.70;47.30
61398;DHT22;47267;48.130;-2.040;2023-02-23T02:40:20;18.70;47.10
61398;DHT22;47267;48.130;-2.040;2023-02-23T02:42:59;18.60;47.00
61398;DHT22;47267;48.130;-2.040;2023-02-23T02:45:50;18.60;47.00
61398;DHT22;47267;48.130;-2.040;2023-02-23T02:48:19;18.60;47.00
61398;DHT22;47267;48.130;-2.040;2023-02-23T02:53:35;18.60;47.00
61398;DHT22;47267;48.130;-2.040;2023-02-23T02:56:06;18.60;47.00
61398;DHT22;47267;48.130;-2.040;2023-02-23T02:58:33;18.60;47.00
61398;DHT22;47267;48.130;-2.040;2023-02-23T03:01:13;18.60;46.90
61398;DHT22;47267;48.130;-2.040;2023-02-23T03:03:59;18.60;47.00
61398;DHT22;47267;48.130;-2.040;2023-02-23T03:06:54;18.60;47.00
61398;DHT22;47267;48.130;-2.040;2023-02-23T03:09:58;18.50;46.90
61398;DHT22;47267;48.130;-2.040;2023-02-23T03:20:05;18.50;46.90
61398;DHT22;47267;48.130;-2.040;2023-02-23T03:26:22;18.50;46.90
61398;DHT22;47267;48.130;-2.040;2023-02-23T03:29:15;18.50;46.90
61398;DHT22;47267;48.130;-2.040;2023-02-23T03:32:31;18.40;46.80
61398;DHT22;47267;48.130;-2.040;2023-02-23T03:38:10;18.50;46.80
61398;DHT22;47267;48.130;-2.040;2023-02-23T03:40:55;18.40;46.70
61398;DHT22;47267;48.130;-2.040;2023-02-23T03:43:47;18.40;46.70
61398;DHT22;47267;48.130;-2.040;2023-02-23T03:46:34;18.40;46.70
61398;DHT22;47267;48.130;-2.040;2023-02-23T03:49:20;18.40;46.70
61398;DHT22;47267;48.130;-2.040;2023-02-23T03:52:13;18.40;46.70
61398;DHT22;47267;48.130;-2.040;2023-02-23T03:55:11;18.40;46.70
61398;DHT22;47267;48.130;-2.040;2023-02-23T03:57:58;18.40;46.70
61398;DHT22;47267;48.130;-2.040;2023-02-23T04:00:46;18.40;46.80
61398;DHT22;47267;48.130;-2.040;2023-02-23T04:03:34;18.40;46.70
61398;DHT22;47267;48.130;-2.040;2023-02-23T04:06:23;18.40;46.70
61398;DHT22;47267;48.130;-2.040;2023-02-23T04:09:09;18.40;46.80
61398;DHT22;47267;48.130;-2.040;2023-02-23T04:15:04;18.30;46.70
61398;DHT22;47267;48.130;-2.040;2023-02-23T04:17:31;18.40;46.70
61398;DHT22;47267;48.130;-2.040;2023-02-23T04:19:57;18.30;46.60
61398;DHT22;47267;48.130;-2.040;2023-02-23T04:22:24;18.30;46.60
61398;DHT22;47267;48.130;-2.040;2023-02-23T04:24:50;18.30;46.60
61398;DHT22;47267;48.130;-2.040;2023-02-23T04:27:16;18.30;46.50
61398;DHT22;47267;48.130;-2.040;2023-02-23T04:29:42;18.30;46.60
61398;DHT22;47267;48.130;-2.040;2023-02-23T04:32:16;18.30;46.50
61398;DHT22;47267;48.130;-2.040;2023-02-23T04:34:43;18.30;46.50
61398;DHT22;47267;48.130;-2.040;2023-02-23T04:37:09;18.30;46.50
61398;DHT22;47267;48.130;-2.040;2023-02-23T04:39:35;18.30;46.50
61398;DHT22;47267;48.130;-2.040;2023-02-23T04:42:01;18.30;46.50
61398;DHT22;47267;48.130;-2.040;2023-02-23T04:44:26;18.30;46.50
61398;DHT22;47267;48.130;-2.040;2023-02-23T04:46:52;18.30;46.50
61398;DHT22;47267;48.130;-2.040;2023-02-23T04:49:18;18.30;46.50
61398;DHT22;47267;48.130;-2.040;2023-02-23T04:51:43;18.30;46.50
61398;DHT22;47267;48.130;-2.040;2023-02-23T04:54:09;18.20;46.40
61398;DHT22;47267;48.130;-2.040;2023-02-23T04:56:35;18.30;46.40
61398;DHT22;47267;48.130;-2.040;2023-02-23T04:59:01;18.20;46.40
61398;DHT22;47267;48.130;-2.040;2023-02-23T05:01:27;18.20;46.40
61398;DHT22;47267;48.130;-2.040;2023-02-23T05:03:53;18.20;46.40
61398;DHT22;47267;48.130;-2.040;2023-02-23T05:06:20;18.20;46.30
61398;DHT22;47267;48.130;-2.040;2023-02-23T05:08:46;18.20;46.40
61398;DHT22;47267;48.130;-2.040;2023-02-23T05:11:12;18.20;46.40
61398;DHT22;47267;48.130;-2.040;2023-02-23T05:13:37;18.20;46.40
61398;DHT22;47267;48.130;-2.040;2023-02-23T05:16:04;18.20;46.40
61398;DHT22;47267;48.130;-2.040;2023-02-23T05:18:30;18.20;46.40
61398;DHT22;47267;48.130;-2.040;2023-02-23T05:21:06;18.20;46.40
61398;DHT22;47267;48.130;-2.040;2023-02-23T05:23:34;18.20;46.30
61398;DHT22;47267;48.130;-2.040;2023-02-23T05:26:05;18.20;46.30
61398;DHT22;47267;48.130;-2.040;2023-02-23T05:28:33;18.20;46.30
61398;DHT22;47267;48.130;-2.040;2023-02-23T05:31:00;18.20;46.30
61398;DHT22;47267;48.130;-2.040;2023-02-23T05:33:25;18.20;46.30
61398;DHT22;47267;48.130;-2.040;2023-02-23T05:35:51;18.10;46.20
61398;DHT22;47267;48.130;-2.040;2023-02-23T05:38:17;18.10;46.20
61398;DHT22;47267;48.130;-2.040;2023-02-23T05:40:44;18.10;46.20
61398;DHT22;47267;48.130;-2.040;2023-02-23T05:43:10;18.10;46.10
61398;DHT22;47267;48.130;-2.040;2023-02-23T05:45:40;18.10;46.10
61398;DHT22;47267;48.130;-2.040;2023-02-23T05:48:06;18.10;46.10
61398;DHT22;47267;48.130;-2.040;2023-02-23T05:50:32;18.10;46.10
61398;DHT22;47267;48.130;-2.040;2023-02-23T05:52:57;18.10;46.20
61398;DHT22;47267;48.130;-2.040;2023-02-23T05:55:23;18.00;46.10
61398;DHT22;47267;48.130;-2.040;2023-02-23T05:57:50;18.10;46.20
61398;DHT22;47267;48.130;-2.040;2023-02-23T06:00:16;18.00;46.10
61398;DHT22;47267;48.130;-2.040;2023-02-23T06:02:42;18.00;46.10
61398;DHT22;47267;48.130;-2.040;2023-02-23T06:05:09;18.10;46.10
61398;DHT22;47267;48.130;-2.040;2023-02-23T06:07:36;18.00;46.10
61398;DHT22;47267;48.130;-2.040;2023-02-23T06:10:02;18.00;46.10
61398;DHT22;47267;48.130;-2.040;2023-02-23T06:12:47;18.00;46.10
61398;DHT22;47267;48.130;-2.040;2023-02-23T06:15:13;18.00;46.10
61398;DHT22;47267;48.130;-2.040;2023-02-23T06:17:39;18.00;46.10
61398;DHT22;47267;48.130;-2.040;2023-02-23T06:20:05;18.00;46.00
61398;DHT22;47267;48.130;-2.040;2023-02-23T06:22:31;18.00;46.10
61398;DHT22;47267;48.130;-2.040;2023-02-23T06:24:57;18.00;46.10
61398;DHT22;47267;48.130;-2.040;2023-02-23T06:27:22;18.00;46.10
61398;DHT22;47267;48.130;-2.040;2023-02-23T06:29:48;17.90;46.00
61398;DHT22;47267;48.130;-2.040;2023-02-23T06:32:14;17.90;46.00
61398;DHT22;47267;48.130;-2.040;2023-02-23T06:34:39;17.90;46.00
61398;DHT22;47267;48.130;-2.040;2023-02-23T06:37:05;17.90;46.00
61398;DHT22;47267;48.130;-2.040;2023-02-23T06:39:31;17.90;46.10
61398;DHT22;47267;48.130;-2.040;2023-02-23T06:41:56;17.90;46.10
61398;DHT22;47267;48.130;-2.040;2023-02-23T06:44:22;17.90;46.00
61398;DHT22;47267;48.130;-2.040;2023-02-23T06:46:48;17.90;46.10
61398;DHT22;47267;48.130;-2.040;2023-02-23T06:49:14;17.90;46.10
61398;DHT22;47267;48.130;-2.040;2023-02-23T06:51:39;17.90;46.10
61398;DHT22;47267;48.130;-2.040;2023-02-23T06:54:05;17.90;46.00
61398;DHT22;47267;48.130;-2.040;2023-02-23T06:56:31;17.90;46.10
61398;DHT22;47267;48.130;-2.040;2023-02-23T06:58:56;17.90;46.10
61398;DHT22;47267;48.130;-2.040;2023-02-23T07:01:22;17.90;46.10
61398;DHT22;47267;48.130;-2.040;2023-02-23T07:03:48;17.90;46.10
61398;DHT22;47267;48.130;-2.040;2023-02-23T07:06:14;17.90;46.00
61398;DHT22;47267;48.130;-2.040;2023-02-23T07:08:39;17.90;46.10
61398;DHT22;47267;48.130;-2.040;2023-02-23T07:11:11;17.90;46.10
61398;DHT22;47267;48.130;-2.040;2023-02-23T07:13:38;17.80;46.00
61398;DHT22;47267;48.130;-2.040;2023-02-23T07:16:04;17.90;46.10
61398;DHT22;47267;48.130;-2.040;2023-02-23T07:18:30;17.90;46.10
61398;DHT22;47267;48.130;-2.040;2023-02-23T07:20:56;17.90;46.10
61398;DHT22;47267;48.130;-2.040;2023-02-23T07:23:22;17.90;46.00
61398;DHT22;47267;48.130;-2.040;2023-02-23T07:25:52;17.90;46.00
61398;DHT22;47267;48.130;-2.040;2023-02-23T07:28:21;17.90;46.00
61398;DHT22;47267;48.130;-2.040;2023-02-23T07:30:47;17.90;46.10
61398;DHT22;47267;48.130;-2.040;2023-02-23T07:33:14;17.90;46.00
61398;DHT22;47267;48.130;-2.040;2023-02-23T07:35:43;17.90;46.00
61398;DHT22;47267;48.130;-2.040;2023-02-23T07:38:09;17.90;46.00
61398;DHT22;47267;48.130;-2.040;2023-02-23T07:40:35;17.90;46.00
61398;DHT22;47267;48.130;-2.040;2023-02-23T07:43:01;17.90;46.00
61398;DHT22;47267;48.130;-2.040;2023-02-23T07:45:27;17.90;46.00
61398;DHT22;47267;48.130;-2.040;2023-02-23T07:47:52;17.90;46.00
61398;DHT22;47267;48.130;-2.040;2023-02-23T07:50:18;17.90;46.00
61398;DHT22;47267;48.130;-2.040;2023-02-23T07:52:44;17.90;46.00
61398;DHT22;47267;48.130;-2.040;2023-02-23T07:55:10;17.90;46.00
61398;DHT22;47267;48.130;-2.040;2023-02-23T07:57:36;17.90;46.00
61398;DHT22;47267;48.130;-2.040;2023-02-23T08:00:04;17.90;46.00
61398;DHT22;47267;48.130;-2.040;2023-02-23T08:02:30;17.90;46.00
61398;DHT22;47267;48.130;-2.040;2023-02-23T08:04:57;17.90;46.00
61398;DHT22;47267;48.130;-2.040;2023-02-23T08:07:23;17.90;46.00
61398;DHT22;47267;48.130;-2.040;2023-02-23T08:09:50;17.90;46.00
61398;DHT22;47267;48.130;-2.040;2023-02-23T08:12:16;17.90;45.90
61398;DHT22;47267;48.130;-2.040;2023-02-23T08:14:42;17.90;45.90
61398;DHT22;47267;48.130;-2.040;2023-02-23T08:17:08;17.90;45.90
61398;DHT22;47267;48.130;-2.040;2023-02-23T08:19:34;17.90;45.90
61398;DHT22;47267;48.130;-2.040;2023-02-23T08:22:02;17.90;45.90
61398;DHT22;47267;48.130;-2.040;2023-02-23T08:24:28;17.90;45.90
61398;DHT22;47267;48.130;-2.040;2023-02-23T08:26:56;17.90;45.90
61398;DHT22;47267;48.130;-2.040;2023-02-23T08:29:22;17.90;45.80
61398;DHT22;47267;48.130;-2.040;2023-02-23T08:31:48;17.90;45.80
61398;DHT22;47267;48.130;-2.040;2023-02-23T08:34:17;17.90;45.80
61398;DHT22;47267;48.130;-2.040;2023-02-23T08:36:43;17.90;45.80
61398;DHT22;47267;48.130;-2.040;2023-02-23T08:39:10;17.90;45.80
61398;DHT22;47267;48.130;-2.040;2023-02-23T08:41:37;17.90;45.80
61398;DHT22;47267;48.130;-2.040;2023-02-23T08:44:03;17.90;45.80
61398;DHT22;47267;48.130;-2.040;2023-02-23T08:46:29;17.90;45.90
61398;DHT22;47267;48.130;-2.040;2023-02-23T08:48:55;17.90;45.90
61398;DHT22;47267;48.130;-2.040;2023-02-23T08:51:21;17.90;45.90
61398;DHT22;47267;48.130;-2.040;2023-02-23T08:53:47;17.90;45.90
61398;DHT22;47267;48.130;-2.040;2023-02-23T08:56:13;17.90;45.90
61398;DHT22;47267;48.130;-2.040;2023-02-23T08:58:39;17.90;45.90
61398;DHT22;47267;48.130;-2.040;2023-02-23T09:01:05;17.90;45.90
61398;DHT22;47267;48.130;-2.040;2023-02-23T09:03:31;17.90;46.00
61398;DHT22;47267;48.130;-2.040;2023-02-23T09:06:06;17.90;46.00
61398;DHT22;47267;48.130;-2.040;2023-02-23T09:08:33;17.90;46.00
61398;DHT22;47267;48.130;-2.040;2023-02-23T09:10:59;17.90;46.10
61398;DHT22;47267;48.130;-2.040;2023-02-23T09:13:24;18.00;46.10
61398;DHT22;47267;48.130;-2.040;2023-02-23T09:15:50;17.90;46.10
61398;DHT22;47267;48.130;-2.040;2023-02-23T09:18:15;17.90;46.10
61398;DHT22;47267;48.130;-2.040;2023-02-23T09:20:43;18.00;46.80
61398;DHT22;47267;48.130;-2.040;2023-02-23T09:23:10;18.00;46.20
61398;DHT22;47267;48.130;-2.040;2023-02-23T09:25:40;17.90;46.20
61398;DHT22;47267;48.130;-2.040;2023-02-23T09:28:18;18.00;46.30
61398;DHT22;47267;48.130;-2.040;2023-02-23T09:30:45;18.00;46.30
61398;DHT22;47267;48.130;-2.040;2023-02-23T09:33:12;18.00;46.30
61398;DHT22;47267;48.130;-2.040;2023-02-23T09:35:38;18.00;46.40
61398;DHT22;47267;48.130;-2.040;2023-02-23T09:38:06;18.00;46.40
61398;DHT22;47267;48.130;-2.040;2023-02-23T09:40:53;18.00;46.40
61398;DHT22;47267;48.130;-2.040;2023-02-23T09:46:09;18.00;46.60
61398;DHT22;47267;48.130;-2.040;2023-02-23T09:48:38;18.00;46.60
61398;DHT22;47267;48.130;-2.040;2023-02-23T09:51:06;18.00;46.60
61398;DHT22;47267;48.130;-2.040;2023-02-23T09:54:03;18.00;46.70
61398;DHT22;47267;48.130;-2.040;2023-02-23T09:56:44;18.00;46.70
61398;DHT22;47267;48.130;-2.040;2023-02-23T09:59:12;18.10;47.40
61398;DHT22;47267;48.130;-2.040;2023-02-23T10:04:25;18.10;46.90
61398;DHT22;47267;48.130;-2.040;2023-02-23T10:06:57;18.10;46.90
61398;DHT22;47267;48.130;-2.040;2023-02-23T10:15:25;18.10;47.00
61398;DHT22;47267;48.130;-2.040;2023-02-23T10:18:16;18.10;47.10
61398;DHT22;47267;48.130;-2.040;2023-02-23T10:23:48;18.10;47.10
61398;DHT22;47267;48.130;-2.040;2023-02-23T10:26:19;18.20;47.10
61398;DHT22;47267;48.130;-2.040;2023-02-23T10:28:46;18.20;47.30
61398;DHT22;47267;48.130;-2.040;2023-02-23T10:31:26;18.20;47.10
61398;DHT22;47267;48.130;-2.040;2023-02-23T10:33:54;18.20;47.20
61398;DHT22;47267;48.130;-2.040;2023-02-23T10:36:35;18.20;47.10
61398;DHT22;47267;48.130;-2.040;2023-02-23T10:39:07;18.20;47.00
61398;DHT22;47267;48.130;-2.040;2023-02-23T10:41:34;18.20;47.00
61398;DHT22;47267;48.130;-2.040;2023-02-23T10:44:00;18.20;47.00
61398;DHT22;47267;48.130;-2.040;2023-02-23T10:46:35;18.20;47.10
61398;DHT22;47267;48.130;-2.040;2023-02-23T10:49:02;18.20;47.10
61398;DHT22;47267;48.130;-2.040;2023-02-23T10:51:32;18.20;47.10
61398;DHT22;47267;48.130;-2.040;2023-02-23T10:53:59;18.30;47.30
61398;DHT22;47267;48.130;-2.040;2023-02-23T10:56:48;18.30;47.40
61398;DHT22;47267;48.130;-2.040;2023-02-23T10:59:18;18.30;47.40
61398;DHT22;47267;48.130;-2.040;2023-02-23T11:01:44;18.30;47.40
61398;DHT22;47267;48.130;-2.040;2023-02-23T11:04:25;18.40;47.50
61398;DHT22;47267;48.130;-2.040;2023-02-23T11:07:07;18.40;47.50
61398;DHT22;47267;48.130;-2.040;2023-02-23T11:09:34;18.40;47.60
61398;DHT22;47267;48.130;-2.040;2023-02-23T11:12:02;18.50;47.70
61398;DHT22;47267;48.130;-2.040;2023-02-23T11:14:30;18.50;47.80
61398;DHT22;47267;48.130;-2.040;2023-02-23T11:16:58;18.50;47.70
61398;DHT22;47267;48.130;-2.040;2023-02-23T11:19:35;18.50;47.80
61398;DHT22;47267;48.130;-2.040;2023-02-23T11:22:03;18.50;47.90
61398;DHT22;47267;48.130;-2.040;2023-02-23T11:24:36;18.60;47.90
61398;DHT22;47267;48.130;-2.040;2023-02-23T11:27:21;18.60;47.90
61398;DHT22;47267;48.130;-2.040;2023-02-23T11:29:49;18.60;48.10
61398;DHT22;47267;48.130;-2.040;2023-02-23T11:32:30;18.60;48.10
61398;DHT22;47267;48.130;-2.040;2023-02-23T11:37:45;18.70;48.10
61398;DHT22;47267;48.130;-2.040;2023-02-23T11:40:29;18.70;48.10
61398;DHT22;47267;48.130;-2.040;2023-02-23T11:43:06;18.70;48.10
61398;DHT22;47267;48.130;-2.040;2023-02-23T11:45:47;18.70;48.10
61398;DHT22;47267;48.130;-2.040;2023-02-23T11:48:30;18.70;48.10
61398;DHT22;47267;48.130;-2.040;2023-02-23T11:50:57;18.80;48.20
61398;DHT22;47267;48.130;-2.040;2023-02-23T11:53:36;18.80;48.20
61398;DHT22;47267;48.130;-2.040;2023-02-23T11:56:05;18.80;48.20
61398;DHT22;47267;48.130;-2.040;2023-02-23T11:58:43;18.80;48.30
61398;DHT22;47267;48.130;-2.040;2023-02-23T12:01:16;18.80;48.20
61398;DHT22;47267;48.130;-2.040;2023-02-23T12:03:55;18.90;48.30
61398;DHT22;47267;48.130;-2.040;2023-02-23T12:06:33;18.90;48.30
61398;DHT22;47267;48.130;-2.040;2023-02-23T12:11:48;18.90;48.40
61398;DHT22;47267;48.130;-2.040;2023-02-23T12:14:39;18.90;48.30
61398;DHT22;47267;48.130;-2.040;2023-02-23T12:17:17;19.00;48.40
61398;DHT22;47267;48.130;-2.040;2023-02-23T12:19:53;19.00;48.40
61398;DHT22;47267;48.130;-2.040;2023-02-23T12:22:50;19.00;48.40
61398;DHT22;47267;48.130;-2.040;2023-02-23T12:36:30;19.00;48.40
61398;DHT22;47267;48.130;-2.040;2023-02-23T12:41:35;19.10;48.50
61398;DHT22;47267;48.130;-2.040;2023-02-23T12:44:28;19.10;48.50
61398;DHT22;47267;48.130;-2.040;2023-02-23T12:46:58;19.10;49.10
61398;DHT22;47267;48.130;-2.040;2023-02-23T12:49:42;19.10;48.50
61398;DHT22;47267;48.130;-2.040;2023-02-23T12:52:31;19.20;48.60
61398;DHT22;47267;48.130;-2.040;2023-02-23T12:54:57;19.20;48.50
61398;DHT22;47267;48.130;-2.040;2023-02-23T12:57:32;19.20;48.60
61398;DHT22;47267;48.130;-2.040;2023-02-23T13:05:27;19.20;48.60
61398;DHT22;47267;48.130;-2.040;2023-02-23T13:16:00;19.30;48.70
61398;DHT22;47267;48.130;-2.040;2023-02-23T13:18:51;19.30;48.60
61398;DHT22;47267;48.130;-2.040;2023-02-23T13:24:01;19.30;48.60
61398;DHT22;47267;48.130;-2.040;2023-02-23T13:26:45;19.30;48.60
61398;DHT22;47267;48.130;-2.040;2023-02-23T13:29:38;19.30;48.60
61398;DHT22;47267;48.130;-2.040;2023-02-23T13:32:12;19.30;48.70
61398;DHT22;47267;48.130;-2.040;2023-02-23T13:34:42;19.30;48.70
61398;DHT22;47267;48.130;-2.040;2023-02-23T13:37:12;19.40;48.80
61398;DHT22;47267;48.130;-2.040;2023-02-23T13:45:31;19.40;48.80
61398;DHT22;47267;48.130;-2.040;2023-02-23T13:56:20;19.40;48.80
61398;DHT22;47267;48.130;-2.040;2023-02-23T13:59:01;19.50;48.80
61398;DHT22;47267;48.130;-2.040;2023-02-23T14:01:39;19.50;48.80
61398;DHT22;47267;48.130;-2.040;2023-02-23T14:04:16;19.50;48.80
61398;DHT22;47267;48.130;-2.040;2023-02-23T14:06:54;19.50;48.70
61398;DHT22;47267;48.130;-2.040;2023-02-23T14:09:29;19.50;48.80
61398;DHT22;47267;48.130;-2.040;2023-02-23T14:12:04;19.50;48.70
61398;DHT22;47267;48.130;-2.040;2023-02-23T14:20:23;19.50;48.70
61398;DHT22;47267;48.130;-2.040;2023-02-23T14:28:34;19.60;48.70
61398;DHT22;47267;48.130;-2.040;2023-02-23T14:44:14;19.60;48.60
61398;DHT22;47267;48.130;-2.040;2023-02-23T14:47:14;19.60;48.60
61398;DHT22;47267;48.130;-2.040;2023-02-23T14:49:59;19.60;48.60
61398;DHT22;47267;48.130;-2.040;2023-02-23T14:52:34;19.60;48.60
61398;DHT22;47267;48.130;-2.040;2023-02-23T14:57:38;19.60;48.60
61398;DHT22;47267;48.130;-2.040;2023-02-23T15:00:20;19.60;48.60
61398;DHT22;47267;48.130;-2.040;2023-02-23T15:03:01;19.60;48.50
61398;DHT22;47267;48.130;-2.040;2023-02-23T15:05:40;19.60;48.50
61398;DHT22;47267;48.130;-2.040;2023-02-23T15:08:08;19.60;48.60
61398;DHT22;47267;48.130;-2.040;2023-02-23T15:10:44;19.60;48.50
61398;DHT22;47267;48.130;-2.040;2023-02-23T15:13:31;19.60;48.50
61398;DHT22;47267;48.130;-2.040;2023-02-23T15:16:02;19.60;48.50
61398;DHT22;47267;48.130;-2.040;2023-02-23T15:18:35;19.60;48.50
61398;DHT22;47267;48.130;-2.040;2023-02-23T15:21:17;19.60;48.50
61398;DHT22;47267;48.130;-2.040;2023-02-23T15:23:46;19.60;48.50
61398;DHT22;47267;48.130;-2.040;2023-02-23T15:26:25;19.60;49.10
61398;DHT22;47267;48.130;-2.040;2023-02-23T15:28:54;19.60;48.50
61398;DHT22;47267;48.130;-2.040;2023-02-23T15:31:29;19.60;48.50
61398;DHT22;47267;48.130;-2.040;2023-02-23T15:33:55;19.60;48.50
61398;DHT22;47267;48.130;-2.040;2023-02-23T15:36:30;19.60;48.50
61398;DHT22;47267;48.130;-2.040;2023-02-23T15:39:01;19.50;48.40
61398;DHT22;47267;48.130;-2.040;2023-02-23T15:41:33;19.60;48.40
61398;DHT22;47267;48.130;-2.040;2023-02-23T15:44:22;19.50;48.40
61398;DHT22;47267;48.130;-2.040;2023-02-23T15:47:12;19.50;48.40
61398;DHT22;47267;48.130;-2.040;2023-02-23T15:49:41;19.50;48.30
61398;DHT22;47267;48.130;-2.040;2023-02-23T15:52:12;19.50;48.40
61398;DHT22;47267;48.130;-2.040;2023-02-23T15:54:53;19.50;48.30
61398;DHT22;47267;48.130;-2.040;2023-02-23T15:57:28;19.50;48.40
61398;DHT22;47267;48.130;-2.040;2023-02-23T15:59:57;19.50;48.30
61398;DHT22;47267;48.130;-2.040;2023-02-23T16:02:23;19.50;48.30
61398;DHT22;47267;48.130;-2.040;2023-02-23T16:04:50;19.50;48.30
61398;DHT22;47267;48.130;-2.040;2023-02-23T16:07:25;19.50;48.30
61398;DHT22;47267;48.130;-2.040;2023-02-23T16:09:55;19.50;48.30
61398;DHT22;47267;48.130;-2.040;2023-02-23T16:12:35;19.40;48.30
61398;DHT22;47267;48.130;-2.040;2023-02-23T16:15:23;19.40;48.20
61398;DHT22;47267;48.130;-2.040;2023-02-23T16:17:55;19.40;48.20
61398;DHT22;47267;48.130;-2.040;2023-02-23T16:20:39;19.40;48.20
61398;DHT22;47267;48.130;-2.040;2023-02-23T16:23:06;19.40;48.20
61398;DHT22;47267;48.130;-2.040;2023-02-23T16:25:33;19.40;48.20
61398;DHT22;47267;48.130;-2.040;2023-02-23T16:28:06;19.40;48.20
61398;DHT22;47267;48.130;-2.040;2023-02-23T16:30:42;19.30;48.10
61398;DHT22;47267;48.130;-2.040;2023-02-23T16:33:27;19.40;48.20
61398;DHT22;47267;48.130;-2.040;2023-02-23T16:36:23;19.40;48.20
61398;DHT22;47267;48.130;-2.040;2023-02-23T16:38:56;19.30;48.10
61398;DHT22;47267;48.130;-2.040;2023-02-23T16:41:27;19.30;48.10
61398;DHT22;47267;48.130;-2.040;2023-02-23T16:43:57;19.30;48.10
61398;DHT22;47267;48.130;-2.040;2023-02-23T16:46:27;19.30;48.10
61398;DHT22;47267;48.130;-2.040;2023-02-23T16:48:54;19.30;48.10
61398;DHT22;47267;48.130;-2.040;2023-02-23T16:51:21;19.30;48.10
61398;DHT22;47267;48.130;-2.040;2023-02-23T16:53:49;19.30;48.10
61398;DHT22;47267;48.130;-2.040;2023-02-23T16:56:19;19.30;48.10
61398;DHT22;47267;48.130;-2.040;2023-02-23T16:58:48;19.30;48.10
61398;DHT22;47267;48.130;-2.040;2023-02-23T17:01:15;19.30;48.10
61398;DHT22;47267;48.130;-2.040;2023-02-23T17:03:42;19.30;48.10
61398;DHT22;47267;48.130;-2.040;2023-02-23T17:06:10;19.20;48.00
61398;DHT22;47267;48.130;-2.040;2023-02-23T17:08:38;19.20;48.10
61398;DHT22;47267;48.130;-2.040;2023-02-23T17:11:04;19.30;48.10
61398;DHT22;47267;48.130;-2.040;2023-02-23T17:13:31;19.20;48.00
61398;DHT22;47267;48.130;-2.040;2023-02-23T17:15:58;19.20;48.00
61398;DHT22;47267;48.130;-2.040;2023-02-23T17:18:30;19.20;48.10
61398;DHT22;47267;48.130;-2.040;2023-02-23T17:20:58;19.20;48.00
61398;DHT22;47267;48.130;-2.040;2023-02-23T17:23:25;19.20;48.00
61398;DHT22;47267;48.130;-2.040;2023-02-23T17:25:52;19.20;48.00
61398;DHT22;47267;48.130;-2.040;2023-02-23T17:28:20;19.20;48.10
61398;DHT22;47267;48.130;-2.040;2023-02-23T17:30:46;19.20;48.00
61398;DHT22;47267;48.130;-2.040;2023-02-23T17:33:12;19.20;48.10
61398;DHT22;47267;48.130;-2.040;2023-02-23T17:35:38;19.20;48.00
61398;DHT22;47267;48.130;-2.040;2023-02-23T17:38:05;19.20;48.00
61398;DHT22;47267;48.130;-2.040;2023-02-23T17:40:31;19.20;48.00
61398;DHT22;47267;48.130;-2.040;2023-02-23T17:43:02;19.10;48.00
61398;DHT22;47267;48.130;-2.040;2023-02-23T17:45:29;19.20;48.00
61398;DHT22;47267;48.130;-2.040;2023-02-23T17:47:56;19.10;48.00
61398;DHT22;47267;48.130;-2.040;2023-02-23T17:50:22;19.10;48.00
61398;DHT22;47267;48.130;-2.040;2023-02-23T17:52:49;19.10;48.00
61398;DHT22;47267;48.130;-2.040;2023-02-23T17:55:16;19.10;48.00
61398;DHT22;47267;48.130;-2.040;2023-02-23T17:57:42;19.10;48.00